sensor_id;sensor_type;location;lat;lon;timestamp;pressure;altitude;pressure_sealevel;temperature;humidity
63321;BME280;49449;48.800;9.534;2024-02-28T00:01:32;98507.13;;;8.33;42.63
63321;BME280;49449;48.800;9.534;2024-02-28T00:04:00;98507.28;;;8.39;42.41
63321;BME280;49449;48.800;9.534;2024-02-28T00:06:28;98513.81;;;8.36;42.40
63321;BME280;49449;48.800;9.534;2024-02-28T00:08:56;98507.72;;;8.35;42.43
63321;BME280;49449;48.800;9.534;2024-02-28T00:11:24;98507.03;;;8.22;42.62
63321;BME280;49449;48.800;9.534;2024-02-28T00:13:51;98507.56;;;8.30;42.45
63321;BME280;49449;48.800;9.534;2024-02-28T00:16:21;98513.59;;;8.38;42.40
63321;BME280;49449;48.800;9.534;2024-02-28T00:18:48;98517.41;;;8.42;42.20
63321;BME280;49449;48.800;9.534;2024-02-28T00:21:18;98518.19;;;8.42;41.87
63321;BME280;49449;48.800;9.534;2024-02-28T00:23:46;98519.03;;;8.43;42.15
63321;BME280;49449;48.800;9.534;2024-02-28T00:26:14;98511.72;;;8.45;42.11
63321;BME280;49449;48.800;9.534;2024-02-28T00:28:42;98527.09;;;8.48;42.28
63321;BME280;49449;48.800;9.534;2024-02-28T00:31:09;98512.88;;;8.49;42.22
63321;BME280;49449;48.800;9.534;2024-02-28T00:33:38;98523.63;;;8.47;42.14
63321;BME280;49449;48.800;9.534;2024-02-28T00:36:06;98525.09;;;8.43;42.10
63321;BME280;49449;48.800;9.534;2024-02-28T00:38:37;98527.88;;;8.48;42.07
63321;BME280;49449;48.800;9.534;2024-02-28T00:41:05;98525.47;;;8.47;42.04
63321;BME280;49449;48.800;9.534;2024-02-28T00:43:34;98519.78;;;8.50;41.97
63321;BME280;49449;48.800;9.534;2024-02-28T00:46:02;98526.84;;;8.49;41.93
63321;BME280;49449;48.800;9.534;2024-02-28T00:48:30;98521.16;;;8.52;41.81
63321;BME280;49449;48.800;9.534;2024-02-28T00:50:59;98521.31;;;8.58;41.79
63321;BME280;49449;48.800;9.534;2024-02-28T00:53:27;98522.75;;;8.60;41.72
63321;BME280;49449;48.800;9.534;2024-02-28T00:55:54;98514.84;;;8.60;41.46
63321;BME280;49449;48.800;9.534;2024-02-28T00:58:22;98519.88;;;8.62;41.59
63321;BME280;49449;48.800;9.534;2024-02-28T01:00:50;98517.25;;;8.62;41.52
63321;BME280;49449;48.800;9.534;2024-02-28T01:03:18;98523.31;;;8.62;41.36
63321;BME280;49449;48.800;9.534;2024-02-28T01:05:45;98520.13;;;8.60;41.22
63321;BME280;49449;48.800;9.534;2024-02-28T01:08:14;98522.50;;;8.62;41.31
63321;BME280;49449;48.800;9.534;2024-02-28T01:10:43;98519.88;;;8.62;41.33
63321;BME280;49449;48.800;9.534;2024-02-28T01:13:11;98516.59;;;8.66;41.23
63321;BME280;49449;48.800;9.534;2024-02-28T01:15:39;98518.22;;;8.67;41.40
63321;BME280;49449;48.800;9.534;2024-02-28T01:18:08;98516.38;;;8.68;41.03
63321;BME280;49449;48.800;9.534;2024-02-28T01:20:36;98524.28;;;8.68;41.04
63321;BME280;49449;48.800;9.534;2024-02-28T01:23:05;98524.72;;;8.65;41.05
63321;BME280;49449;48.800;9.534;2024-02-28T01:25:34;98525.31;;;8.67;40.75
63321;BME280;49449;48.800;9.534;2024-02-28T01:28:04;98529.78;;;8.66;40.78
63321;BME280;49449;48.800;9.534;2024-02-28T01:30:32;98523.91;;;8.64;40.88
63321;BME280;49449;48.800;9.534;2024-02-28T01:33:00;98524.72;;;8.65;40.72
63321;BME280;49449;48.800;9.534;2024-02-28T01:35:28;98530.56;;;8.67;40.80
63321;BME280;49449;48.800;9.534;2024-02-28T01:37:55;98531.59;;;8.66;40.53
63321;BME280;49449;48.800;9.534;2024-02-28T01:40:23;98530.56;;;8.67;40.70
63321;BME280;49449;48.800;9.534;2024-02-28T01:42:52;98530.94;;;8.70;40.61
63321;BME280;49449;48.800;9.534;2024-02-28T01:45:20;98530.16;;;8.70;40.43
63321;BME280;49449;48.800;9.534;2024-02-28T01:47:52;98541.09;;;8.67;40.50
63321;BME280;49449;48.800;9.534;2024-02-28T01:50:27;98531.59;;;8.66;40.66
63321;BME280;49449;48.800;9.534;2024-02-28T01:52:58;98533.88;;;8.62;40.68
63321;BME280;49449;48.800;9.534;2024-02-28T01:55:26;98534.44;;;8.64;40.72
63321;BME280;49449;48.800;9.534;2024-02-28T01:57:55;98536.88;;;8.66;40.51
63321;BME280;49449;48.800;9.534;2024-02-28T02:00:24;98543.75;;;8.67;40.52
63321;BME280;49449;48.800;9.534;2024-02-28T02:02:53;98548.22;;;8.66;40.69
63321;BME280;49449;48.800;9.534;2024-02-28T02:05:21;98553.06;;;8.69;40.71
63321;BME280;49449;48.800;9.534;2024-02-28T02:07:48;98548.78;;;8.68;40.63
63321;BME280;49449;48.800;9.534;2024-02-28T02:10:16;98562.00;;;8.62;41.03
63321;BME280;49449;48.800;9.534;2024-02-28T02:12:44;98560.03;;;8.57;41.09
63321;BME280;49449;48.800;9.534;2024-02-28T02:15:13;98563.25;;;8.59;41.36
63321;BME280;49449;48.800;9.534;2024-02-28T02:17:41;98568.09;;;8.62;41.48
63321;BME280;49449;48.800;9.534;2024-02-28T02:20:11;98568.31;;;8.61;40.81
63321;BME280;49449;48.800;9.534;2024-02-28T02:22:43;98578.25;;;8.59;40.96
63321;BME280;49449;48.800;9.534;2024-02-28T02:25:10;98572.78;;;8.60;41.10
63321;BME280;49449;48.800;9.534;2024-02-28T02:27:38;98579.66;;;8.61;40.97
63321;BME280;49449;48.800;9.534;2024-02-28T02:30:07;98574.59;;;8.60;40.66
63321;BME280;49449;48.800;9.534;2024-02-28T02:32:35;98581.47;;;8.61;40.58
63321;BME280;49449;48.800;9.534;2024-02-28T02:35:03;98585.72;;;8.62;40.51
63321;BME280;49449;48.800;9.534;2024-02-28T02:37:33;98596.25;;;8.62;40.39
63321;BME280;49449;48.800;9.534;2024-02-28T02:40:03;98601.50;;;8.62;40.40
63321;BME280;49449;48.800;9.534;2024-02-28T02:42:31;98601.31;;;8.63;40.35
63321;BME280;49449;48.800;9.534;2024-02-28T02:44:58;98607.41;;;8.64;40.25
63321;BME280;49449;48.800;9.534;2024-02-28T02:47:26;98612.66;;;8.64;40.38
63321;BME280;49449;48.800;9.534;2024-02-28T02:49:54;98611.63;;;8.65;40.56
63321;BME280;49449;48.800;9.534;2024-02-28T02:52:22;98613.25;;;8.66;40.35
63321;BME280;49449;48.800;9.534;2024-02-28T02:54:50;98612.66;;;8.64;40.42
63321;BME280;49449;48.800;9.534;2024-02-28T02:57:19;98611.84;;;8.63;40.50
63321;BME280;49449;48.800;9.534;2024-02-28T02:59:47;98609.19;;;8.63;40.50
63321;BME280;49449;48.800;9.534;2024-02-28T03:02:15;98619.16;;;8.61;40.78
63321;BME280;49449;48.800;9.534;2024-02-28T03:04:42;98618.94;;;8.63;40.62
63321;BME280;49449;48.800;9.534;2024-02-28T03:07:10;98621.56;;;8.63;40.41
63321;BME280;49449;48.800;9.534;2024-02-28T03:09:38;98626.03;;;8.62;40.36
63321;BME280;49449;48.800;9.534;2024-02-28T03:12:08;98636.00;;;8.60;40.41
63321;BME280;49449;48.800;9.534;2024-02-28T03:14:37;98630.94;;;8.59;40.37
63321;BME280;49449;48.800;9.534;2024-02-28T03:17:05;98637.19;;;8.58;40.61
63321;BME280;49449;48.800;9.534;2024-02-28T03:19:32;98636.00;;;8.60;40.48
63321;BME280;49449;48.800;9.534;2024-02-28T03:22:02;98639.41;;;8.61;40.39
63321;BME280;49449;48.800;9.534;2024-02-28T03:24:30;98647.31;;;8.61;40.49
63321;BME280;49449;48.800;9.534;2024-02-28T03:26:58;98650.16;;;8.59;40.42
63321;BME280;49449;48.800;9.534;2024-02-28T03:29:26;98659.06;;;8.58;40.44
63321;BME280;49449;48.800;9.534;2024-02-28T03:31:55;98662.56;;;8.52;40.55
63321;BME280;49449;48.800;9.534;2024-02-28T03:34:26;98665.78;;;8.54;40.41
63321;BME280;49449;48.800;9.534;2024-02-28T03:36:53;98672.25;;;8.58;40.37
63321;BME280;49449;48.800;9.534;2024-02-28T03:39:21;98676.50;;;8.59;40.47
63321;BME280;49449;48.800;9.534;2024-02-28T03:41:51;98678.53;;;8.57;40.40
63321;BME280;49449;48.800;9.534;2024-02-28T03:44:18;98683.00;;;8.57;40.58
63321;BME280;49449;48.800;9.534;2024-02-28T03:46:48;98684.00;;;8.55;40.45
63321;BME280;49449;48.800;9.534;2024-02-28T03:49:17;98686.66;;;8.55;40.29
63321;BME280;49449;48.800;9.534;2024-02-28T03:51:45;98688.47;;;8.55;40.42
63321;BME280;49449;48.800;9.534;2024-02-28T03:54:12;98685.00;;;8.54;40.40
63321;BME280;49449;48.800;9.534;2024-02-28T03:56:40;98687.88;;;8.53;40.26
63321;BME280;49449;48.800;9.534;2024-02-28T03:59:08;98686.47;;;8.50;40.18
63321;BME280;49449;48.800;9.534;2024-02-28T04:01:36;98679.81;;;8.48;40.27
63321;BME280;49449;48.800;9.534;2024-02-28T04:04:03;98683.25;;;8.48;40.23
63321;BME280;49449;48.800;9.534;2024-02-28T04:06:33;98675.94;;;8.50;40.16
63321;BME280;49449;48.800;9.534;2024-02-28T04:09:00;98676.94;;;8.49;39.97
63321;BME280;49449;48.800;9.534;2024-02-28T04:11:29;98688.50;;;8.48;40.18
63321;BME280;49449;48.800;9.534;2024-02-28T04:13:57;98684.25;;;8.47;40.22
63321;BME280;49449;48.800;9.534;2024-02-28T04:16:25;98678.97;;;8.47;40.24
63321;BME280;49449;48.800;9.534;2024-02-28T04:18:52;98683.44;;;8.47;40.23
63321;BME280;49449;48.800;9.534;2024-02-28T04:21:20;98686.88;;;8.47;40.25
63321;BME280;49449;48.800;9.534;2024-02-28T04:23:50;98683.44;;;8.47;40.21
63321;BME280;49449;48.800;9.534;2024-02-28T04:26:17;98685.28;;;8.46;40.29
63321;BME280;49449;48.800;9.534;2024-02-28T04:28:45;98687.31;;;8.44;40.30
63321;BME280;49449;48.800;9.534;2024-02-28T04:31:13;98687.72;;;8.41;40.38
63321;BME280;49449;48.800;9.534;2024-02-28T04:33:41;98686.53;;;8.37;40.75
63321;BME280;49449;48.800;9.534;2024-02-28T04:36:11;98692.00;;;8.35;40.62
63321;BME280;49449;48.800;9.534;2024-02-28T04:38:39;98693.03;;;8.34;40.94
63321;BME280;49449;48.800;9.534;2024-02-28T04:41:08;98691.38;;;8.33;40.47
63321;BME280;49449;48.800;9.534;2024-02-28T04:43:36;98698.06;;;8.36;40.72
63321;BME280;49449;48.800;9.534;2024-02-28T04:46:04;98699.09;;;8.35;41.63
63321;BME280;49449;48.800;9.534;2024-02-28T04:48:32;98697.28;;;8.35;43.09
63321;BME280;49449;48.800;9.534;2024-02-28T04:51:00;98703.97;;;8.31;42.00
63321;BME280;49449;48.800;9.534;2024-02-28T04:53:28;98705.78;;;8.31;41.54
63321;BME280;49449;48.800;9.534;2024-02-28T04:55:56;98702.75;;;8.34;41.01
63321;BME280;49449;48.800;9.534;2024-02-28T04:58:26;98711.66;;;8.33;40.70
63321;BME280;49449;48.800;9.534;2024-02-28T05:00:53;98709.03;;;8.33;40.96
63321;BME280;49449;48.800;9.534;2024-02-28T05:03:21;98716.31;;;8.31;40.90
63321;BME280;49449;48.800;9.534;2024-02-28T05:05:51;98723.03;;;8.27;41.01
63321;BME280;49449;48.800;9.534;2024-02-28T05:08:20;98719.16;;;8.23;40.80
63321;BME280;49449;48.800;9.534;2024-02-28T05:10:49;98713.91;;;8.23;41.58
63321;BME280;49449;48.800;9.534;2024-02-28T05:13:17;98718.38;;;8.22;41.37
63321;BME280;49449;48.800;9.534;2024-02-28T05:15:46;98720.22;;;8.22;40.89
63321;BME280;49449;48.800;9.534;2024-02-28T05:18:14;98728.09;;;8.22;40.81
63321;BME280;49449;48.800;9.534;2024-02-28T05:20:42;98725.28;;;8.23;40.71
63321;BME280;49449;48.800;9.534;2024-02-28T05:23:10;98731.53;;;8.22;40.63
63321;BME280;49449;48.800;9.534;2024-02-28T05:25:38;98732.53;;;8.21;40.74
63321;BME280;49449;48.800;9.534;2024-02-28T05:28:06;98729.69;;;8.23;40.44
63321;BME280;49449;48.800;9.534;2024-02-28T05:30:34;98729.69;;;8.23;40.49
63321;BME280;49449;48.800;9.534;2024-02-28T05:33:03;98737.59;;;8.23;40.47
63321;BME280;49449;48.800;9.534;2024-02-28T05:35:31;98740.63;;;8.26;40.17
63321;BME280;49449;48.800;9.534;2024-02-28T05:37:59;98742.25;;;8.27;40.37
63321;BME280;49449;48.800;9.534;2024-02-28T05:40:27;98743.06;;;8.28;40.33
63321;BME280;49449;48.800;9.534;2024-02-28T05:42:55;98745.09;;;8.26;40.22
63321;BME280;49449;48.800;9.534;2024-02-28T05:45:23;98747.13;;;8.24;40.21
63321;BME280;49449;48.800;9.534;2024-02-28T05:47:50;98745.88;;;8.26;40.06
63321;BME280;49449;48.800;9.534;2024-02-28T05:50:19;98747.72;;;8.26;39.97
63321;BME280;49449;48.800;9.534;2024-02-28T05:52:47;98751.16;;;8.26;40.05
63321;BME280;49449;48.800;9.534;2024-02-28T05:55:15;98752.00;;;8.20;40.04
63321;BME280;49449;48.800;9.534;2024-02-28T05:57:43;98756.66;;;8.18;40.23
63321;BME280;49449;48.800;9.534;2024-02-28T06:00:12;98758.06;;;8.21;40.11
63321;BME280;49449;48.800;9.534;2024-02-28T06:02:40;98764.94;;;8.22;40.11
63321;BME280;49449;48.800;9.534;2024-02-28T06:05:08;98778.91;;;8.22;40.08
63321;BME280;49449;48.800;9.534;2024-02-28T06:07:37;98775.47;;;8.22;40.26
63321;BME280;49449;48.800;9.534;2024-02-28T06:10:07;98779.91;;;8.21;40.34
63321;BME280;49449;48.800;9.534;2024-02-28T06:12:37;98781.34;;;8.24;40.31
63321;BME280;49449;48.800;9.534;2024-02-28T06:15:05;98778.09;;;8.22;40.22
63321;BME280;49449;48.800;9.534;2024-02-28T06:17:33;98785.19;;;8.21;40.31
63321;BME280;49449;48.800;9.534;2024-02-28T06:20:01;98780.94;;;8.20;40.35
63321;BME280;49449;48.800;9.534;2024-02-28T06:22:28;98786.22;;;8.20;40.13
63321;BME280;49449;48.800;9.534;2024-02-28T06:24:58;98788.84;;;8.20;40.41
63321;BME280;49449;48.800;9.534;2024-02-28T06:27:26;98800.56;;;8.24;40.22
63321;BME280;49449;48.800;9.534;2024-02-28T06:29:53;98795.72;;;8.21;40.11
63321;BME280;49449;48.800;9.534;2024-02-28T06:32:23;98803.19;;;8.24;40.11
63321;BME280;49449;48.800;9.534;2024-02-28T06:34:51;98806.22;;;8.28;40.10
63321;BME280;49449;48.800;9.534;2024-02-28T06:37:19;98808.66;;;8.29;39.74
63321;BME280;49449;48.800;9.534;2024-02-28T06:39:47;98816.34;;;8.31;39.55
63321;BME280;49449;48.800;9.534;2024-02-28T06:42:16;98814.91;;;8.35;39.31
63321;BME280;49449;48.800;9.534;2024-02-28T06:44:44;98822.00;;;8.34;39.28
63321;BME280;49449;48.800;9.534;2024-02-28T06:47:14;98828.72;;;8.30;39.44
63321;BME280;49449;48.800;9.534;2024-02-28T06:49:43;98830.50;;;8.30;39.49
63321;BME280;49449;48.800;9.534;2024-02-28T06:52:13;98830.31;;;8.31;39.35
63321;BME280;49449;48.800;9.534;2024-02-28T06:54:41;98841.88;;;8.37;39.41
63321;BME280;49449;48.800;9.534;2024-02-28T06:57:09;98837.81;;;8.34;39.64
63321;BME280;49449;48.800;9.534;2024-02-28T06:59:39;98845.91;;;8.33;39.60
63321;BME280;49449;48.800;9.534;2024-02-28T07:02:07;98846.31;;;8.30;39.77
63321;BME280;49449;48.800;9.534;2024-02-28T07:04:34;98854.00;;;8.31;39.70
63321;BME280;49449;48.800;9.534;2024-02-28T07:07:03;98856.63;;;8.31;39.39
63321;BME280;49449;48.800;9.534;2024-02-28T07:09:31;98864.13;;;8.28;39.66
63321;BME280;49449;48.800;9.534;2024-02-28T07:11:59;98855.84;;;8.31;39.30
63321;BME280;49449;48.800;9.534;2024-02-28T07:14:27;98849.56;;;8.32;39.57
63321;BME280;49449;48.800;9.534;2024-02-28T07:16:57;98853.00;;;8.32;39.47
63321;BME280;49449;48.800;9.534;2024-02-28T07:19:24;98852.41;;;8.30;39.37
63321;BME280;49449;48.800;9.534;2024-02-28T07:21:52;98846.13;;;8.31;39.36
63321;BME280;49449;48.800;9.534;2024-02-28T07:24:20;98853.59;;;8.34;39.19
63321;BME280;49449;48.800;9.534;2024-02-28T07:26:48;98861.72;;;8.33;39.16
63321;BME280;49449;48.800;9.534;2024-02-28T07:29:17;98862.09;;;8.30;39.46
63321;BME280;49449;48.800;9.534;2024-02-28T07:31:45;98866.16;;;8.32;39.38
63321;BME280;49449;48.800;9.534;2024-02-28T07:34:14;98864.75;;;8.36;39.53
63321;BME280;49449;48.800;9.534;2024-02-28T07:36:43;98859.66;;;8.35;39.06
63321;BME280;49449;48.800;9.534;2024-02-28T07:39:11;98878.31;;;8.40;39.31
63321;BME280;49449;48.800;9.534;2024-02-28T07:41:39;98873.88;;;8.41;39.26
63321;BME280;49449;48.800;9.534;2024-02-28T07:44:08;98876.69;;;8.39;39.11
63321;BME280;49449;48.800;9.534;2024-02-28T07:46:38;98886.41;;;8.39;39.20
63321;BME280;49449;48.800;9.534;2024-02-28T07:49:08;98883.38;;;8.42;39.14
63321;BME280;49449;48.800;9.534;2024-02-28T07:51:38;98892.69;;;8.44;39.07
63321;BME280;49449;48.800;9.534;2024-02-28T07:54:08;98892.69;;;8.44;38.80
63321;BME280;49449;48.800;9.534;2024-02-28T07:56:36;98896.34;;;8.43;38.74
63321;BME280;49449;48.800;9.534;2024-02-28T07:59:03;98890.25;;;8.43;38.83
63321;BME280;49449;48.800;9.534;2024-02-28T08:01:31;98902.00;;;8.47;38.88
63321;BME280;49449;48.800;9.534;2024-02-28T08:04:02;98904.22;;;8.43;39.21
63321;BME280;49449;48.800;9.534;2024-02-28T08:06:29;98909.09;;;8.46;39.15
63321;BME280;49449;48.800;9.534;2024-02-28T08:09:02;98918.00;;;8.52;39.11
63321;BME280;49449;48.800;9.534;2024-02-28T08:11:31;98919.00;;;8.51;38.89
63321;BME280;49449;48.800;9.534;2024-02-28T08:13:58;98916.78;;;8.48;39.05
63321;BME280;49449;48.800;9.534;2024-02-28T08:16:26;98919.44;;;8.48;39.06
63321;BME280;49449;48.800;9.534;2024-02-28T08:18:55;98918.41;;;8.49;39.07
63321;BME280;49449;48.800;9.534;2024-02-28T08:21:23;98915.97;;;8.47;38.97
63321;BME280;49449;48.800;9.534;2024-02-28T08:23:51;98919.81;;;8.51;38.62
63321;BME280;49449;48.800;9.534;2024-02-28T08:26:20;98929.34;;;8.52;38.87
63321;BME280;49449;48.800;9.534;2024-02-28T08:28:48;98923.25;;;8.52;39.07
63321;BME280;49449;48.800;9.534;2024-02-28T08:31:16;98922.47;;;8.51;39.02
63321;BME280;49449;48.800;9.534;2024-02-28T08:33:43;98924.06;;;8.52;39.00
63321;BME280;49449;48.800;9.534;2024-02-28T08:36:11;98915.38;;;8.52;38.87
63321;BME280;49449;48.800;9.534;2024-02-28T08:38:39;98923.66;;;8.49;38.68
63321;BME280;49449;48.800;9.534;2024-02-28T08:41:07;98927.72;;;8.45;38.68
63321;BME280;49449;48.800;9.534;2024-02-28T08:43:38;98931.97;;;8.46;38.93
63321;BME280;49449;48.800;9.534;2024-02-28T08:46:06;98931.78;;;8.41;39.29
63321;BME280;49449;48.800;9.534;2024-02-28T08:48:34;98932.19;;;8.44;39.15
63321;BME280;49449;48.800;9.534;2024-02-28T08:51:07;98936.25;;;8.20;39.84
63321;BME280;49449;48.800;9.534;2024-02-28T08:53:34;98933.22;;;8.23;39.67
63321;BME280;49449;48.800;9.534;2024-02-28T08:56:02;98931.19;;;8.32;39.48
63321;BME280;49449;48.800;9.534;2024-02-28T08:58:30;98936.84;;;8.35;39.75
63321;BME280;49449;48.800;9.534;2024-02-28T09:00:59;98933.59;;;8.33;39.75
63321;BME280;49449;48.800;9.534;2024-02-28T09:03:27;98928.13;;;8.35;39.52
63321;BME280;49449;48.800;9.534;2024-02-28T09:05:55;98935.41;;;8.33;39.65
63321;BME280;49449;48.800;9.534;2024-02-28T09:08:23;98936.22;;;8.33;39.43
63321;BME280;49449;48.800;9.534;2024-02-28T09:10:51;98942.13;;;8.29;40.55
63321;BME280;49449;48.800;9.534;2024-02-28T09:13:18;98940.88;;;8.31;39.87
63321;BME280;49449;48.800;9.534;2024-02-28T09:15:46;98939.25;;;8.17;39.61
63321;BME280;49449;48.800;9.534;2024-02-28T09:18:16;98943.13;;;8.14;40.18
63321;BME280;49449;48.800;9.534;2024-02-28T09:20:47;98943.09;;;8.21;39.74
63321;BME280;49449;48.800;9.534;2024-02-28T09:23:15;98938.47;;;8.23;40.32
63321;BME280;49449;48.800;9.534;2024-02-28T09:25:42;98944.75;;;8.29;40.28
63321;BME280;49449;48.800;9.534;2024-02-28T09:28:10;98945.94;;;8.33;39.83
63321;BME280;49449;48.800;9.534;2024-02-28T09:30:42;98949.38;;;8.33;39.62
63321;BME280;49449;48.800;9.534;2024-02-28T09:33:11;98942.31;;;8.34;39.67
63321;BME280;49449;48.800;9.534;2024-02-28T09:35:41;98950.41;;;8.32;40.03
63321;BME280;49449;48.800;9.534;2024-02-28T09:38:12;98952.00;;;8.33;39.92
63321;BME280;49449;48.800;9.534;2024-02-28T09:40:39;98953.25;;;8.31;39.83
63321;BME280;49449;48.800;9.534;2024-02-28T09:43:15;98951.84;;;8.28;39.57
63321;BME280;49449;48.800;9.534;2024-02-28T09:45:45;98952.44;;;8.30;39.57
63321;BME280;49449;48.800;9.534;2024-02-28T09:48:15;98954.88;;;8.32;40.31
63321;BME280;49449;48.800;9.534;2024-02-28T09:50:45;98960.56;;;8.35;39.69
63321;BME280;49449;48.800;9.534;2024-02-28T09:53:13;98956.69;;;8.38;40.24
63321;BME280;49449;48.800;9.534;2024-02-28T09:55:40;98961.94;;;8.38;39.79
63321;BME280;49449;48.800;9.534;2024-02-28T09:58:08;98960.97;;;8.39;40.44
63321;BME280;49449;48.800;9.534;2024-02-28T10:00:37;98964.78;;;8.36;39.97
63321;BME280;49449;48.800;9.534;2024-02-28T10:03:06;98966.22;;;8.39;39.89
63321;BME280;49449;48.800;9.534;2024-02-28T10:05:35;98968.03;;;8.39;40.24
63321;BME280;49449;48.800;9.534;2024-02-28T10:08:05;98976.75;;;8.39;39.70
63321;BME280;49449;48.800;9.534;2024-02-28T10:10:36;98974.50;;;8.36;39.80
63321;BME280;49449;48.800;9.534;2024-02-28T10:13:05;98967.81;;;8.40;39.57
63321;BME280;49449;48.800;9.534;2024-02-28T10:15:32;98967.44;;;8.43;39.50
63321;BME280;49449;48.800;9.534;2024-02-28T10:18:00;98967.03;;;8.53;39.33
63321;BME280;49449;48.800;9.534;2024-02-28T10:20:32;98980.59;;;8.57;38.58
63321;BME280;49449;48.800;9.534;2024-02-28T10:23:05;98988.28;;;8.58;38.58
63321;BME280;49449;48.800;9.534;2024-02-28T10:25:41;98984.63;;;8.59;38.34
63321;BME280;49449;48.800;9.534;2024-02-28T10:28:10;98988.47;;;8.63;38.35
63321;BME280;49449;48.800;9.534;2024-02-28T10:30:40;98993.53;;;8.58;38.13
63321;BME280;49449;48.800;9.534;2024-02-28T10:33:10;98992.13;;;8.55;38.35
63321;BME280;49449;48.800;9.534;2024-02-28T10:35:39;98993.16;;;8.61;38.19
63321;BME280;49449;48.800;9.534;2024-02-28T10:38:10;98983.63;;;8.47;38.04
63321;BME280;49449;48.800;9.534;2024-02-28T10:40:39;98987.69;;;8.36;38.31
63321;BME280;49449;48.800;9.534;2024-02-28T10:43:08;98996.38;;;8.30;38.61
63321;BME280;49449;48.800;9.534;2024-02-28T10:45:37;98993.75;;;8.23;38.76
63321;BME280;49449;48.800;9.534;2024-02-28T10:48:07;99002.66;;;8.29;38.96
63321;BME280;49449;48.800;9.534;2024-02-28T10:50:36;99010.78;;;8.41;38.58
63321;BME280;49449;48.800;9.534;2024-02-28T10:53:04;99016.63;;;8.49;38.27
63321;BME280;49449;48.800;9.534;2024-02-28T10:55:37;99021.09;;;8.49;38.17
63321;BME280;49449;48.800;9.534;2024-02-28T10:58:08;99019.47;;;8.54;38.24
63321;BME280;49449;48.800;9.534;2024-02-28T11:00:38;99023.94;;;8.54;38.61
63321;BME280;49449;48.800;9.534;2024-02-28T11:03:08;99016.03;;;8.61;38.61
63321;BME280;49449;48.800;9.534;2024-02-28T11:05:37;99016.25;;;8.66;38.45
63321;BME280;49449;48.800;9.534;2024-02-28T11:08:08;99019.28;;;8.69;38.61
63321;BME280;49449;48.800;9.534;2024-02-28T11:10:41;99023.31;;;8.72;38.96
63321;BME280;49449;48.800;9.534;2024-02-28T11:13:10;99014.06;;;8.76;38.80
63321;BME280;49449;48.800;9.534;2024-02-28T11:15:48;99011.00;;;8.79;40.48
63321;BME280;49449;48.800;9.534;2024-02-28T11:18:16;99011.19;;;8.84;40.58
63321;BME280;49449;48.800;9.534;2024-02-28T11:20:44;99011.59;;;8.88;39.77
63321;BME280;49449;48.800;9.534;2024-02-28T11:23:14;99016.25;;;8.92;38.83
63321;BME280;49449;48.800;9.534;2024-02-28T11:25:45;99018.91;;;8.86;38.53
63321;BME280;49449;48.800;9.534;2024-02-28T11:28:14;99013.63;;;8.86;38.80
63321;BME280;49449;48.800;9.534;2024-02-28T11:30:43;99014.41;;;8.93;38.83
63321;BME280;49449;48.800;9.534;2024-02-28T11:33:11;99009.75;;;8.95;38.62
63321;BME280;49449;48.800;9.534;2024-02-28T11:35:38;99024.34;;;8.98;38.44
63321;BME280;49449;48.800;9.534;2024-02-28T11:38:06;99022.31;;;9.00;38.20
63321;BME280;49449;48.800;9.534;2024-02-28T11:40:36;99027.78;;;8.98;38.19
63321;BME280;49449;48.800;9.534;2024-02-28T11:43:05;99027.78;;;8.98;38.28
63321;BME280;49449;48.800;9.534;2024-02-28T11:45:39;99035.31;;;8.95;38.68
63321;BME280;49449;48.800;9.534;2024-02-28T11:48:07;99032.28;;;8.91;38.63
63321;BME280;49449;48.800;9.534;2024-02-28T11:50:37;99032.06;;;8.92;38.57
63321;BME280;49449;48.800;9.534;2024-02-28T11:53:05;99036.53;;;8.92;38.50
63321;BME280;49449;48.800;9.534;2024-02-28T11:55:33;99033.91;;;8.92;38.11
63321;BME280;49449;48.800;9.534;2024-02-28T11:58:01;99036.34;;;8.94;38.09
63321;BME280;49449;48.800;9.534;2024-02-28T12:00:32;99036.94;;;8.96;38.50
63321;BME280;49449;48.800;9.534;2024-02-28T12:03:04;99037.13;;;8.87;38.38
63321;BME280;49449;48.800;9.534;2024-02-28T12:05:33;99036.34;;;8.87;38.80
63321;BME280;49449;48.800;9.534;2024-02-28T12:08:01;99018.50;;;8.89;38.75
63321;BME280;49449;48.800;9.534;2024-02-28T12:10:29;99018.91;;;8.92;39.11
63321;BME280;49449;48.800;9.534;2024-02-28T12:12:59;99015.84;;;8.96;39.38
63321;BME280;49449;48.800;9.534;2024-02-28T12:15:31;99014.41;;;8.86;38.57
63321;BME280;49449;48.800;9.534;2024-02-28T12:17:59;99011.59;;;8.88;38.79
63321;BME280;49449;48.800;9.534;2024-02-28T12:20:27;99017.25;;;8.91;38.71
63321;BME280;49449;48.800;9.534;2024-02-28T12:22:55;99013.63;;;8.92;38.94
63321;BME280;49449;48.800;9.534;2024-02-28T12:25:23;99013.22;;;8.96;38.17
63321;BME280;49449;48.800;9.534;2024-02-28T12:27:53;99013.63;;;8.99;38.03
63321;BME280;49449;48.800;9.534;2024-02-28T12:30:21;99011.38;;;8.96;38.02
63321;BME280;49449;48.800;9.534;2024-02-28T12:32:50;99003.47;;;8.96;38.11
63321;BME280;49449;48.800;9.534;2024-02-28T12:35:21;99002.47;;;8.97;38.48
63321;BME280;49449;48.800;9.534;2024-02-28T12:37:51;98997.22;;;8.97;38.35
63321;BME280;49449;48.800;9.534;2024-02-28T12:40:19;99011.19;;;8.98;38.06
63321;BME280;49449;48.800;9.534;2024-02-28T12:42:46;99006.31;;;9.01;38.07
63321;BME280;49449;48.800;9.534;2024-02-28T12:45:14;99009.16;;;9.00;37.95
63321;BME280;49449;48.800;9.534;2024-02-28T12:47:42;99002.88;;;9.01;37.26
63321;BME280;49449;48.800;9.534;2024-02-28T12:50:12;98991.75;;;8.92;37.46
63321;BME280;49449;48.800;9.534;2024-02-28T12:52:40;98997.41;;;8.76;37.37
63321;BME280;49449;48.800;9.534;2024-02-28T12:55:08;99003.88;;;8.73;37.54
63321;BME280;49449;48.800;9.534;2024-02-28T12:57:36;98999.00;;;8.63;37.53
63321;BME280;49449;48.800;9.534;2024-02-28T13:00:05;98993.94;;;8.68;37.99
63321;BME280;49449;48.800;9.534;2024-02-28T13:02:33;98996.41;;;8.77;39.13
63321;BME280;49449;48.800;9.534;2024-02-28T13:05:00;98991.34;;;8.82;39.59
63321;BME280;49449;48.800;9.534;2024-02-28T13:07:29;98992.13;;;8.89;40.27
63321;BME280;49449;48.800;9.534;2024-02-28T13:09:57;99002.09;;;8.87;40.00
63321;BME280;49449;48.800;9.534;2024-02-28T13:12:29;98995.59;;;8.76;38.51
63321;BME280;49449;48.800;9.534;2024-02-28T13:14:56;99004.31;;;8.57;37.94
63321;BME280;49449;48.800;9.534;2024-02-28T13:17:24;98997.00;;;8.32;38.43